sensor_id;sensor_type;location;lat;lon;timestamp;temperature;humidity
17687;DHT22;8962;52.538;13.266;2022-10-16T00:00:43;15.70;99.90
17687;DHT22;8962;52.538;13.266;2022-10-16T00:03:10;15.70;99.90
17687;DHT22;8962;52.538;13.266;2022-10-16T00:05:42;15.80;99.90
17687;DHT22;8962;52.538;13.266;2022-10-16T00:08:10;15.90;99.90
17687;DHT22;8962;52.538;13.266;2022-10-16T00:10:38;16.00;99.90
17687;DHT22;8962;52.538;13.266;2022-10-16T00:13:06;16.00;99.90
17687;DHT22;8962;52.538;13.266;2022-10-16T00:15:34;16.00;99.90
17687;DHT22;8962;52.538;13.266;2022-10-16T00:18:04;16.10;99.90
17687;DHT22;8962;52.538;13.266;2022-10-16T00:20:34;16.10;99.90
17687;DHT22;8962;52.538;13.266;2022-10-16T00:23:02;16.10;99.90
17687;DHT22;8962;52.538;13.266;2022-10-16T00:25:30;16.10;99.90
17687;DHT22;8962;52.538;13.266;2022-10-16T00:28:00;16.00;99.90
17687;DHT22;8962;52.538;13.266;2022-10-16T00:30:27;16.00;99.90
17687;DHT22;8962;52.538;13.266;2022-10-16T00:32:54;16.00;99.90
17687;DHT22;8962;52.538;13.266;2022-10-16T00:35:23;16.00;99.90
17687;DHT22;8962;52.538;13.266;2022-10-16T00:37:50;16.00;99.90
17687;DHT22;8962;52.538;13.266;2022-10-16T00:40:17;16.00;99.90
17687;DHT22;8962;52.538;13.266;2022-10-16T00:42:44;15.90;99.90
17687;DHT22;8962;52.538;13.266;2022-10-16T00:45:11;15.90;99.90
17687;DHT22;8962;52.538;13.266;2022-10-16T00:47:41;15.90;99.90
17687;DHT22;8962;52.538;13.266;2022-10-16T00:50:14;16.00;99.90
17687;DHT22;8962;52.538;13.266;2022-10-16T00:52:47;16.00;99.90
17687;DHT22;8962;52.538;13.266;2022-10-16T00:55:15;16.00;99.90
17687;DHT22;8962;52.538;13.266;2022-10-16T00:57:44;16.00;99.90
17687;DHT22;8962;52.538;13.266;2022-10-16T01:00:15;16.00;99.90
17687;DHT22;8962;52.538;13.266;2022-10-16T01:02:42;16.00;99.90
17687;DHT22;8962;52.538;13.266;2022-10-16T01:05:09;16.10;99.90
17687;DHT22;8962;52.538;13.266;2022-10-16T01:07:41;16.10;99.90
17687;DHT22;8962;52.538;13.266;2022-10-16T01:10:17;16.10;99.90
17687;DHT22;8962;52.538;13.266;2022-10-16T01:12:57;16.10;99.90
17687;DHT22;8962;52.538;13.266;2022-10-16T01:15:29;16.10;99.90
17687;DHT22;8962;52.538;13.266;2022-10-16T01:18:01;16.10;99.90
17687;DHT22;8962;52.538;13.266;2022-10-16T01:20:34;16.10;99.90
17687;DHT22;8962;52.538;13.266;2022-10-16T01:23:14;16.10;99.90
17687;DHT22;8962;52.538;13.266;2022-10-16T01:28:59;16.20;99.90
17687;DHT22;8962;52.538;13.266;2022-10-16T01:31:32;16.20;99.90
17687;DHT22;8962;52.538;13.266;2022-10-16T01:34:03;16.20;99.90
17687;DHT22;8962;52.538;13.266;2022-10-16T01:36:37;16.20;99.90
17687;DHT22;8962;52.538;13.266;2022-10-16T01:39:08;16.20;99.90
17687;DHT22;8962;52.538;13.266;2022-10-16T01:41:39;16.10;99.90
17687;DHT22;8962;52.538;13.266;2022-10-16T01:44:11;16.10;99.90
17687;DHT22;8962;52.538;13.266;2022-10-16T01:46:45;16.10;99.90
17687;DHT22;8962;52.538;13.266;2022-10-16T01:49:13;16.10;99.90
17687;DHT22;8962;52.538;13.266;2022-10-16T01:51:42;16.10;99.90
17687;DHT22;8962;52.538;13.266;2022-10-16T01:54:13;16.10;99.90
17687;DHT22;8962;52.538;13.266;2022-10-16T01:56:42;16.00;99.90
17687;DHT22;8962;52.538;13.266;2022-10-16T01:59:13;15.90;99.90
17687;DHT22;8962;52.538;13.266;2022-10-16T02:01:45;15.90;99.90
17687;DHT22;8962;52.538;13.266;2022-10-16T02:04:20;16.00;99.90
17687;DHT22;8962;52.538;13.266;2022-10-16T02:06:49;16.10;99.90
17687;DHT22;8962;52.538;13.266;2022-10-16T02:09:17;16.10;99.90
17687;DHT22;8962;52.538;13.266;2022-10-16T02:11:44;16.10;99.90
17687;DHT22;8962;52.538;13.266;2022-10-16T02:14:13;16.10;99.90
17687;DHT22;8962;52.538;13.266;2022-10-16T02:16:43;16.10;99.90
17687;DHT22;8962;52.538;13.266;2022-10-16T02:19:12;16.10;99.90
17687;DHT22;8962;52.538;13.266;2022-10-16T02:21:44;16.20;99.90
17687;DHT22;8962;52.538;13.266;2022-10-16T02:24:21;16.10;99.90
17687;DHT22;8962;52.538;13.266;2022-10-16T02:26:51;16.10;99.90
17687;DHT22;8962;52.538;13.266;2022-10-16T02:29:25;16.10;99.90
17687;DHT22;8962;52.538;13.266;2022-10-16T02:31:56;16.20;99.90
17687;DHT22;8962;52.538;13.266;2022-10-16T02:34:26;16.10;99.90
17687;DHT22;8962;52.538;13.266;2022-10-16T02:36:56;16.10;99.90
17687;DHT22;8962;52.538;13.266;2022-10-16T02:39:26;16.10;99.90
17687;DHT22;8962;52.538;13.266;2022-10-16T02:41:56;16.10;99.90
17687;DHT22;8962;52.538;13.266;2022-10-16T02:44:24;16.10;99.90
17687;DHT22;8962;52.538;13.266;2022-10-16T02:46:52;16.10;99.90
17687;DHT22;8962;52.538;13.266;2022-10-16T02:49:18;16.00;99.90
17687;DHT22;8962;52.538;13.266;2022-10-16T02:51:45;16.00;99.90
17687;DHT22;8962;52.538;13.266;2022-10-16T02:54:15;15.90;99.90
17687;DHT22;8962;52.538;13.266;2022-10-16T02:56:42;16.00;99.90
17687;DHT22;8962;52.538;13.266;2022-10-16T02:59:09;15.90;99.90
17687;DHT22;8962;52.538;13.266;2022-10-16T03:01:38;15.90;99.90
17687;DHT22;8962;52.538;13.266;2022-10-16T03:04:05;15.90;99.90
17687;DHT22;8962;52.538;13.266;2022-10-16T03:06:33;15.80;99.90
17687;DHT22;8962;52.538;13.266;2022-10-16T03:09:00;15.80;99.90
17687;DHT22;8962;52.538;13.266;2022-10-16T03:11:29;15.80;99.90
17687;DHT22;8962;52.538;13.266;2022-10-16T03:13:57;15.70;99.90
17687;DHT22;8962;52.538;13.266;2022-10-16T03:16:24;15.70;99.90
17687;DHT22;8962;52.538;13.266;2022-10-16T03:18:52;15.70;99.90
17687;DHT22;8962;52.538;13.266;2022-10-16T03:21:19;15.70;99.90
17687;DHT22;8962;52.538;13.266;2022-10-16T03:23:47;15.60;99.90
17687;DHT22;8962;52.538;13.266;2022-10-16T03:26:14;15.60;99.90
17687;DHT22;8962;52.538;13.266;2022-10-16T03:28:41;15.50;99.90
17687;DHT22;8962;52.538;13.266;2022-10-16T03:31:09;15.60;99.90
17687;DHT22;8962;52.538;13.266;2022-10-16T03:33:35;15.50;99.90
17687;DHT22;8962;52.538;13.266;2022-10-16T03:36:04;15.50;99.90
17687;DHT22;8962;52.538;13.266;2022-10-16T03:38:31;15.50;99.90
17687;DHT22;8962;52.538;13.266;2022-10-16T03:41:02;15.50;99.90
17687;DHT22;8962;52.538;13.266;2022-10-16T03:43:30;15.50;99.90
17687;DHT22;8962;52.538;13.266;2022-10-16T03:45:57;15.50;99.90
17687;DHT22;8962;52.538;13.266;2022-10-16T03:48:25;15.50;99.90
17687;DHT22;8962;52.538;13.266;2022-10-16T03:50:53;15.60;99.90
17687;DHT22;8962;52.538;13.266;2022-10-16T03:53:23;15.60;99.90
17687;DHT22;8962;52.538;13.266;2022-10-16T03:55:51;15.60;99.90
17687;DHT22;8962;52.538;13.266;2022-10-16T03:58:18;15.50;99.90
17687;DHT22;8962;52.538;13.266;2022-10-16T04:00:46;15.50;99.90
17687;DHT22;8962;52.538;13.266;2022-10-16T04:03:14;15.50;99.90
17687;DHT22;8962;52.538;13.266;2022-10-16T04:05:41;15.50;99.90
17687;DHT22;8962;52.538;13.266;2022-10-16T04:08:08;15.50;99.90
17687;DHT22;8962;52.538;13.266;2022-10-16T04:10:36;15.50;99.90
17687;DHT22;8962;52.538;13.266;2022-10-16T04:13:03;15.40;99.90
17687;DHT22;8962;52.538;13.266;2022-10-16T04:15:30;15.40;99.90
17687;DHT22;8962;52.538;13.266;2022-10-16T04:17:58;15.40;99.90
17687;DHT22;8962;52.538;13.266;2022-10-16T04:20:25;15.40;99.90
17687;DHT22;8962;52.538;13.266;2022-10-16T04:22:52;15.30;99.90
17687;DHT22;8962;52.538;13.266;2022-10-16T04:25:19;15.20;99.90
17687;DHT22;8962;52.538;13.266;2022-10-16T04:27:52;15.30;99.90
17687;DHT22;8962;52.538;13.266;2022-10-16T04:30:19;15.20;99.90
17687;DHT22;8962;52.538;13.266;2022-10-16T04:32:48;15.10;99.90
17687;DHT22;8962;52.538;13.266;2022-10-16T04:35:17;15.10;99.90
17687;DHT22;8962;52.538;13.266;2022-10-16T04:37:47;15.00;99.90
17687;DHT22;8962;52.538;13.266;2022-10-16T04:40:14;15.00;99.90
17687;DHT22;8962;52.538;13.266;2022-10-16T04:42:41;15.00;99.90
17687;DHT22;8962;52.538;13.266;2022-10-16T04:45:12;15.00;99.90
17687;DHT22;8962;52.538;13.266;2022-10-16T04:47:40;14.90;99.90
17687;DHT22;8962;52.538;13.266;2022-10-16T04:50:10;14.90;99.90
17687;DHT22;8962;52.538;13.266;2022-10-16T04:52:38;14.90;99.90
17687;DHT22;8962;52.538;13.266;2022-10-16T04:55:07;14.80;99.90
17687;DHT22;8962;52.538;13.266;2022-10-16T04:57:34;14.80;99.90
17687;DHT22;8962;52.538;13.266;2022-10-16T05:00:02;14.80;99.90
17687;DHT22;8962;52.538;13.266;2022-10-16T05:02:31;14.70;99.90
17687;DHT22;8962;52.538;13.266;2022-10-16T05:04:58;14.70;99.90
17687;DHT22;8962;52.538;13.266;2022-10-16T05:07:26;14.60;99.90
17687;DHT22;8962;52.538;13.266;2022-10-16T05:09:53;14.60;99.90
17687;DHT22;8962;52.538;13.266;2022-10-16T05:12:20;14.60;99.90
17687;DHT22;8962;52.538;13.266;2022-10-16T05:14:52;14.70;99.90
17687;DHT22;8962;52.538;13.266;2022-10-16T05:17:24;14.70;99.90
17687;DHT22;8962;52.538;13.266;2022-10-16T05:19:53;14.60;99.90
17687;DHT22;8962;52.538;13.266;2022-10-16T05:22:23;14.70;99.90
17687;DHT22;8962;52.538;13.266;2022-10-16T05:24:51;14.70;99.90
17687;DHT22;8962;52.538;13.266;2022-10-16T05:27:19;14.70;99.90
17687;DHT22;8962;52.538;13.266;2022-10-16T05:29:46;14.70;99.90
17687;DHT22;8962;52.538;13.266;2022-10-16T05:32:14;14.70;99.90
17687;DHT22;8962;52.538;13.266;2022-10-16T05:34:43;14.70;99.90
17687;DHT22;8962;52.538;13.266;2022-10-16T05:37:11;14.70;99.90
17687;DHT22;8962;52.538;13.266;2022-10-16T05:39:39;14.70;99.90
17687;DHT22;8962;52.538;13.266;2022-10-16T05:42:06;14.70;99.90
17687;DHT22;8962;52.538;13.266;2022-10-16T05:44:36;14.80;99.90
17687;DHT22;8962;52.538;13.266;2022-10-16T05:47:03;14.90;99.90
17687;DHT22;8962;52.538;13.266;2022-10-16T05:49:30;14.90;99.90
17687;DHT22;8962;52.538;13.266;2022-10-16T05:51:57;15.00;99.90
17687;DHT22;8962;52.538;13.266;2022-10-16T05:54:26;15.00;99.90
17687;DHT22;8962;52.538;13.266;2022-10-16T05:56:53;15.00;99.90
17687;DHT22;8962;52.538;13.266;2022-10-16T05:59:21;15.00;99.90
17687;DHT22;8962;52.538;13.266;2022-10-16T06:01:48;15.00;99.90
17687;DHT22;8962;52.538;13.266;2022-10-16T06:04:16;15.00;99.90
17687;DHT22;8962;52.538;13.266;2022-10-16T06:06:43;15.00;99.90
17687;DHT22;8962;52.538;13.266;2022-10-16T06:09:19;15.00;99.90
17687;DHT22;8962;52.538;13.266;2022-10-16T06:11:49;15.00;99.90
17687;DHT22;8962;52.538;13.266;2022-10-16T06:14:17;15.10;99.90
17687;DHT22;8962;52.538;13.266;2022-10-16T06:16:44;15.20;99.90
17687;DHT22;8962;52.538;13.266;2022-10-16T06:19:11;15.20;99.90
17687;DHT22;8962;52.538;13.266;2022-10-16T06:21:38;15.30;99.90
17687;DHT22;8962;52.538;13.266;2022-10-16T06:24:08;15.30;99.90
17687;DHT22;8962;52.538;13.266;2022-10-16T06:26:37;15.40;99.90
17687;DHT22;8962;52.538;13.266;2022-10-16T06:29:07;15.40;99.90
17687;DHT22;8962;52.538;13.266;2022-10-16T06:34:09;15.40;99.90
17687;DHT22;8962;52.538;13.266;2022-10-16T06:36:42;15.50;99.90
17687;DHT22;8962;52.538;13.266;2022-10-16T06:39:10;15.50;99.90
17687;DHT22;8962;52.538;13.266;2022-10-16T06:41:37;15.50;99.90
17687;DHT22;8962;52.538;13.266;2022-10-16T06:44:16;15.50;99.90
17687;DHT22;8962;52.538;13.266;2022-10-16T06:46:44;15.60;99.90
17687;DHT22;8962;52.538;13.266;2022-10-16T06:49:11;15.70;99.90
17687;DHT22;8962;52.538;13.266;2022-10-16T06:51:38;15.80;99.90
17687;DHT22;8962;52.538;13.266;2022-10-16T06:54:07;15.90;99.90
17687;DHT22;8962;52.538;13.266;2022-10-16T06:56:34;15.90;99.90
17687;DHT22;8962;52.538;13.266;2022-10-16T06:59:01;16.00;99.90
17687;DHT22;8962;52.538;13.266;2022-10-16T07:01:30;16.10;99.90
17687;DHT22;8962;52.538;13.266;2022-10-16T07:03:58;16.20;99.90
17687;DHT22;8962;52.538;13.266;2022-10-16T07:06:30;16.30;99.90
17687;DHT22;8962;52.538;13.266;2022-10-16T07:08:58;16.50;99.90
17687;DHT22;8962;52.538;13.266;2022-10-16T07:11:29;16.60;99.90
17687;DHT22;8962;52.538;13.266;2022-10-16T07:13:56;16.70;99.90
17687;DHT22;8962;52.538;13.266;2022-10-16T07:16:26;16.90;99.90
17687;DHT22;8962;52.538;13.266;2022-10-16T07:18:57;17.00;99.90
17687;DHT22;8962;52.538;13.266;2022-10-16T07:21:26;17.10;99.90
17687;DHT22;8962;52.538;13.266;2022-10-16T07:23:55;17.10;99.90
17687;DHT22;8962;52.538;13.266;2022-10-16T07:26:24;17.00;99.90
17687;DHT22;8962;52.538;13.266;2022-10-16T07:28:53;17.10;99.90
17687;DHT22;8962;52.538;13.266;2022-10-16T07:31:21;17.10;99.90
17687;DHT22;8962;52.538;13.266;2022-10-16T07:33:50;17.20;99.90
17687;DHT22;8962;52.538;13.266;2022-10-16T07:36:21;17.10;99.90
17687;DHT22;8962;52.538;13.266;2022-10-16T07:38:48;17.10;99.90
17687;DHT22;8962;52.538;13.266;2022-10-16T07:41:18;17.30;99.90
17687;DHT22;8962;52.538;13.266;2022-10-16T07:43:46;17.30;99.90
17687;DHT22;8962;52.538;13.266;2022-10-16T07:46:16;17.40;99.90
17687;DHT22;8962;52.538;13.266;2022-10-16T07:48:44;17.30;99.90
17687;DHT22;8962;52.538;13.266;2022-10-16T07:51:15;17.30;99.90
17687;DHT22;8962;52.538;13.266;2022-10-16T07:53:45;17.30;99.90
17687;DHT22;8962;52.538;13.266;2022-10-16T07:56:12;17.50;99.90
17687;DHT22;8962;52.538;13.266;2022-10-16T07:58:40;17.30;99.90
17687;DHT22;8962;52.538;13.266;2022-10-16T08:01:09;17.30;99.90
17687;DHT22;8962;52.538;13.266;2022-10-16T08:03:37;17.20;99.90
17687;DHT22;8962;52.538;13.266;2022-10-16T08:06:04;17.30;99.90
17687;DHT22;8962;52.538;13.266;2022-10-16T08:08:31;17.30;99.90
17687;DHT22;8962;52.538;13.266;2022-10-16T08:11:01;17.30;99.90
17687;DHT22;8962;52.538;13.266;2022-10-16T08:13:32;17.40;99.90
17687;DHT22;8962;52.538;13.266;2022-10-16T08:16:02;17.50;99.90
17687;DHT22;8962;52.538;13.266;2022-10-16T08:18:34;17.50;99.90
17687;DHT22;8962;52.538;13.266;2022-10-16T08:21:11;17.60;99.90
17687;DHT22;8962;52.538;13.266;2022-10-16T08:23:39;17.70;99.90
17687;DHT22;8962;52.538;13.266;2022-10-16T08:26:08;17.60;99.90
17687;DHT22;8962;52.538;13.266;2022-10-16T08:28:37;17.70;99.90
17687;DHT22;8962;52.538;13.266;2022-10-16T08:31:11;17.70;99.90
17687;DHT22;8962;52.538;13.266;2022-10-16T08:33:40;17.70;99.90
17687;DHT22;8962;52.538;13.266;2022-10-16T08:36:09;17.70;99.90
17687;DHT22;8962;52.538;13.266;2022-10-16T08:38:37;17.70;99.90
17687;DHT22;8962;52.538;13.266;2022-10-16T08:41:27;17.70;99.90
17687;DHT22;8962;52.538;13.266;2022-10-16T08:47:17;17.80;99.90
17687;DHT22;8962;52.538;13.266;2022-10-16T08:49:56;18.00;99.90
17687;DHT22;8962;52.538;13.266;2022-10-16T08:52:28;18.10;99.90
17687;DHT22;8962;52.538;13.266;2022-10-16T08:54:56;18.20;99.90
17687;DHT22;8962;52.538;13.266;2022-10-16T08:57:26;18.20;99.90
17687;DHT22;8962;52.538;13.266;2022-10-16T08:59:53;18.30;99.90
17687;DHT22;8962;52.538;13.266;2022-10-16T09:02:31;18.50;99.90
17687;DHT22;8962;52.538;13.266;2022-10-16T09:08:00;18.50;99.90
17687;DHT22;8962;52.538;13.266;2022-10-16T09:10:38;18.60;99.90
17687;DHT22;8962;52.538;13.266;2022-10-16T09:13:17;18.50;99.90
17687;DHT22;8962;52.538;13.266;2022-10-16T09:15:49;18.70;99.90
17687;DHT22;8962;52.538;13.266;2022-10-16T09:18:22;18.80;99.90
17687;DHT22;8962;52.538;13.266;2022-10-16T09:20:55;19.00;99.90
17687;DHT22;8962;52.538;13.266;2022-10-16T09:23:27;19.00;99.90
17687;DHT22;8962;52.538;13.266;2022-10-16T09:25:56;19.00;99.90
17687;DHT22;8962;52.538;13.266;2022-10-16T09:28:28;19.00;99.90
17687;DHT22;8962;52.538;13.266;2022-10-16T09:30:56;19.00;99.90
17687;DHT22;8962;52.538;13.266;2022-10-16T09:33:28;19.00;99.90
17687;DHT22;8962;52.538;13.266;2022-10-16T09:35:56;18.90;99.90
17687;DHT22;8962;52.538;13.266;2022-10-16T09:38:27;18.80;99.90
17687;DHT22;8962;52.538;13.266;2022-10-16T09:40:56;18.80;99.90
17687;DHT22;8962;52.538;13.266;2022-10-16T09:43:28;18.80;99.90
17687;DHT22;8962;52.538;13.266;2022-10-16T09:45:59;18.70;99.90
17687;DHT22;8962;52.538;13.266;2022-10-16T09:48:31;18.60;99.90
17687;DHT22;8962;52.538;13.266;2022-10-16T09:51:02;18.60;99.90
17687;DHT22;8962;52.538;13.266;2022-10-16T09:53:39;18.70;99.90
17687;DHT22;8962;52.538;13.266;2022-10-16T09:56:10;18.70;99.90
17687;DHT22;8962;52.538;13.266;2022-10-16T09:58:51;18.70;99.90
17687;DHT22;8962;52.538;13.266;2022-10-16T10:01:19;18.70;99.90
17687;DHT22;8962;52.538;13.266;2022-10-16T10:03:46;18.90;99.90
17687;DHT22;8962;52.538;13.266;2022-10-16T10:06:24;19.20;99.90
17687;DHT22;8962;52.538;13.266;2022-10-16T10:09:04;19.10;99.90
17687;DHT22;8962;52.538;13.266;2022-10-16T10:11:43;19.20;99.90
17687;DHT22;8962;52.538;13.266;2022-10-16T10:14:27;19.30;99.90
17687;DHT22;8962;52.538;13.266;2022-10-16T10:17:12;19.40;99.90
17687;DHT22;8962;52.538;13.266;2022-10-16T10:19:46;19.30;99.90
17687;DHT22;8962;52.538;13.266;2022-10-16T10:22:39;19.20;99.90
17687;DHT22;8962;52.538;13.266;2022-10-16T10:25:37;19.40;99.90
17687;DHT22;8962;52.538;13.266;2022-10-16T10:28:29;19.30;99.90
17687;DHT22;8962;52.538;13.266;2022-10-16T10:31:06;19.40;99.90
17687;DHT22;8962;52.538;13.266;2022-10-16T10:33:42;19.40;99.90
17687;DHT22;8962;52.538;13.266;2022-10-16T10:36:25;19.40;99.90
17687;DHT22;8962;52.538;13.266;2022-10-16T10:38:58;19.60;99.90
17687;DHT22;8962;52.538;13.266;2022-10-16T10:41:49;19.80;99.90
17687;DHT22;8962;52.538;13.266;2022-10-16T10:44:28;20.00;99.90
17687;DHT22;8962;52.538;13.266;2022-10-16T10:47:05;20.00;99.90
17687;DHT22;8962;52.538;13.266;2022-10-16T10:49:49;20.30;99.90
17687;DHT22;8962;52.538;13.266;2022-10-16T10:52:33;20.50;99.90
17687;DHT22;8962;52.538;13.266;2022-10-16T10:55:10;20.70;99.90
17687;DHT22;8962;52.538;13.266;2022-10-16T10:57:54;20.90;99.90
17687;DHT22;8962;52.538;13.266;2022-10-16T11:00:30;21.20;99.90
17687;DHT22;8962;52.538;13.266;2022-10-16T11:03:07;21.50;99.90
17687;DHT22;8962;52.538;13.266;2022-10-16T11:05:42;22.50;99.90
17687;DHT22;8962;52.538;13.266;2022-10-16T11:08:14;22.00;99.90
17687;DHT22;8962;52.538;13.266;2022-10-16T11:10:51;21.80;99.90
17687;DHT22;8962;52.538;13.266;2022-10-16T11:13:24;21.30;99.90
17687;DHT22;8962;52.538;13.266;2022-10-16T11:15:58;21.30;99.90
17687;DHT22;8962;52.538;13.266;2022-10-16T11:18:33;21.20;99.90
17687;DHT22;8962;52.538;13.266;2022-10-16T11:21:07;21.20;99.90
17687;DHT22;8962;52.538;13.266;2022-10-16T11:23:41;21.20;99.90
17687;DHT22;8962;52.538;13.266;2022-10-16T11:26:15;21.10;99.90
17687;DHT22;8962;52.538;13.266;2022-10-16T11:28:46;21.10;99.90
17687;DHT22;8962;52.538;13.266;2022-10-16T11:31:19;21.10;99.90
17687;DHT22;8962;52.538;13.266;2022-10-16T11:33:57;21.20;99.90
17687;DHT22;8962;52.538;13.266;2022-10-16T11:36:33;21.20;99.90
17687;DHT22;8962;52.538;13.266;2022-10-16T11:39:11;21.30;99.90
17687;DHT22;8962;52.538;13.266;2022-10-16T11:41:47;21.50;99.90
17687;DHT22;8962;52.538;13.266;2022-10-16T11:44:22;22.50;99.90
17687;DHT22;8962;52.538;13.266;2022-10-16T11:46:55;23.10;99.90
17687;DHT22;8962;52.538;13.266;2022-10-16T11:49:30;23.90;99.90
17687;DHT22;8962;52.538;13.266;2022-10-16T11:52:05;23.40;99.90
17687;DHT22;8962;52.538;13.266;2022-10-16T11:54:39;24.10;99.90
17687;DHT22;8962;52.538;13.266;2022-10-16T11:57:12;24.10;99.90
17687;DHT22;8962;52.538;13.266;2022-10-16T11:59:44;25.00;99.90
17687;DHT22;8962;52.538;13.266;2022-10-16T12:02:28;26.10;99.90
17687;DHT22;8962;52.538;13.266;2022-10-16T12:05:06;26.50;99.90
17687;DHT22;8962;52.538;13.266;2022-10-16T12:07:38;27.20;99.90
17687;DHT22;8962;52.538;13.266;2022-10-16T12:10:20;27.20;99.90
17687;DHT22;8962;52.538;13.266;2022-10-16T12:12:47;27.30;99.90
17687;DHT22;8962;52.538;13.266;2022-10-16T12:15:23;27.50;99.90
17687;DHT22;8962;52.538;13.266;2022-10-16T12:17:51;27.30;99.90
17687;DHT22;8962;52.538;13.266;2022-10-16T12:20:26;26.70;99.90
17687;DHT22;8962;52.538;13.266;2022-10-16T12:22:55;24.90;99.90
17687;DHT22;8962;52.538;13.266;2022-10-16T12:25:26;23.30;99.90
17687;DHT22;8962;52.538;13.266;2022-10-16T12:28:02;23.90;99.90
17687;DHT22;8962;52.538;13.266;2022-10-16T12:30:32;25.90;99.90
17687;DHT22;8962;52.538;13.266;2022-10-16T12:33:02;27.20;99.90
17687;DHT22;8962;52.538;13.266;2022-10-16T12:35:33;28.60;99.90
17687;DHT22;8962;52.538;13.266;2022-10-16T12:38:15;29.30;99.90
17687;DHT22;8962;52.538;13.266;2022-10-16T12:40:46;29.80;96.70
17687;DHT22;8962;52.538;13.266;2022-10-16T12:43:35;29.40;95.60
17687;DHT22;8962;52.538;13.266;2022-10-16T12:46:20;29.30;94.60
17687;DHT22;8962;52.538;13.266;2022-10-16T12:48:49;29.70;93.20
17687;DHT22;8962;52.538;13.266;2022-10-16T12:51:25;29.80;92.30
17687;DHT22;8962;52.538;13.266;2022-10-16T12:54:00;29.90;91.20
17687;DHT22;8962;52.538;13.266;2022-10-16T12:56:38;29.50;91.40
17687;DHT22;8962;52.538;13.266;2022-10-16T12:59:13;28.60;92.70
17687;DHT22;8962;52.538;13.266;2022-10-16T13:01:52;27.90;93.60
17687;DHT22;8962;52.538;13.266;2022-10-16T13:04:34;28.50;93.30
17687;DHT22;8962;52.538;13.266;2022-10-16T13:07:19;28.80;92.90
17687;DHT22;8962;52.538;13.266;2022-10-16T13:09:59;28.10;94.20
17687;DHT22;8962;52.538;13.266;2022-10-16T13:12:49;27.60;94.70
17687;DHT22;8962;52.538;13.266;2022-10-16T13:15:27;25.80;97.90
17687;DHT22;8962;52.538;13.266;2022-10-16T13:18:04;24.70;99.90
17687;DHT22;8962;52.538;13.266;2022-10-16T13:20:35;23.70;99.90
17687;DHT22;8962;52.538;13.266;2022-10-16T13:23:16;22.70;99.90
17687;DHT22;8962;52.538;13.266;2022-10-16T13:26:02;21.80;99.90
17687;DHT22;8962;52.538;13.266;2022-10-16T13:28:32;21.50;99.90
17687;DHT22;8962;52.538;13.266;2022-10-16T13:31:01;21.30;99.90
17687;DHT22;8962;52.538;13.266;2022-10-16T13:33:32;21.10;99.90
17687;DHT22;8962;52.538;13.266;2022-10-16T13:36:00;21.40;99.90
17687;DHT22;8962;52.538;13.266;2022-10-16T13:38:32;23.60;99.90
17687;DHT22;8962;52.538;13.266;2022-10-16T13:41:03;24.80;99.90
17687;DHT22;8962;52.538;13.266;2022-10-16T13:43:33;24.40;99.90
17687;DHT22;8962;52.538;13.266;2022-10-16T13:46:02;24.20;99.90
17687;DHT22;8962;52.538;13.266;2022-10-16T13:48:33;24.60;99.90
17687;DHT22;8962;52.538;13.266;2022-10-16T13:51:04;25.90;99.90
17687;DHT22;8962;52.538;13.266;2022-10-16T13:53:35;27.20;99.00
17687;DHT22;8962;52.538;13.266;2022-10-16T13:56:04;26.90;98.00
17687;DHT22;8962;52.538;13.266;2022-10-16T13:58:36;25.60;99.40
17687;DHT22;8962;52.538;13.266;2022-10-16T14:01:26;24.50;99.90
17687;DHT22;8962;52.538;13.266;2022-10-16T14:04:12;23.30;99.90
17687;DHT22;8962;52.538;13.266;2022-10-16T14:06:42;22.30;99.90
17687;DHT22;8962;52.538;13.266;2022-10-16T14:09:22;21.70;99.90
17687;DHT22;8962;52.538;13.266;2022-10-16T14:11:51;21.50;99.90
17687;DHT22;8962;52.538;13.266;2022-10-16T14:14:18;21.30;99.90
17687;DHT22;8962;52.538;13.266;2022-10-16T14:16:49;20.90;99.90
17687;DHT22;8962;52.538;13.266;2022-10-16T14:19:23;20.70;99.90
17687;DHT22;8962;52.538;13.266;2022-10-16T14:21:54;20.60;99.90
17687;DHT22;8962;52.538;13.266;2022-10-16T14:24:32;20.60;99.90
17687;DHT22;8962;52.538;13.266;2022-10-16T14:27:00;20.60;99.90
17687;DHT22;8962;52.538;13.266;2022-10-16T14:29:29;20.50;99.90
17687;DHT22;8962;52.538;13.266;2022-10-16T14:32:05;20.60;99.90
17687;DHT22;8962;52.538;13.266;2022-10-16T14:34:37;20.70;99.90
17687;DHT22;8962;52.538;13.266;2022-10-16T14:37:09;20.50;99.90
17687;DHT22;8962;52.538;13.266;2022-10-16T14:39:41;20.40;99.90
17687;DHT22;8962;52.538;13.266;2022-10-16T14:42:14;20.20;99.90
17687;DHT22;8962;52.538;13.266;2022-10-16T14:44:43;20.20;99.90
17687;DHT22;8962;52.538;13.266;2022-10-16T14:47:15;20.10;99.90
17687;DHT22;8962;52.538;13.266;2022-10-16T14:49:42;20.10;99.90
17687;DHT22;8962;52.538;13.266;2022-10-16T14:52:10;20.10;99.90
17687;DHT22;8962;52.538;13.266;2022-10-16T14:54:40;20.00;99.90
17687;DHT22;8962;52.538;13.266;2022-10-16T14:57:16;19.90;99.90
17687;DHT22;8962;52.538;13.266;2022-10-16T14:59:44;19.80;99.90
17687;DHT22;8962;52.538;13.266;2022-10-16T15:02:20;19.80;99.90
17687;DHT22;8962;52.538;13.266;2022-10-16T15:04:49;19.70;99.90
17687;DHT22;8962;52.538;13.266;2022-10-16T15:07:19;19.70;99.90
17687;DHT22;8962;52.538;13.266;2022-10-16T15:09:48;19.70;99.90
17687;DHT22;8962;52.538;13.266;2022-10-16T15:12:15;19.70;99.90
17687;DHT22;8962;52.538;13.266;2022-10-16T15:14:48;19.60;99.90
17687;DHT22;8962;52.538;13.266;2022-10-16T15:17:16;19.60;99.90
17687;DHT22;8962;52.538;13.266;2022-10-16T15:19:44;19.50;99.90
17687;DHT22;8962;52.538;13.266;2022-10-16T15:22:12;19.40;99.90
17687;DHT22;8962;52.538;13.266;2022-10-16T15:24:39;19.40;99.90
17687;DHT22;8962;52.538;13.266;2022-10-16T15:27:07;19.30;99.90
17687;DHT22;8962;52.538;13.266;2022-10-16T15:29:35;19.20;99.90
17687;DHT22;8962;52.538;13.266;2022-10-16T15:32:03;19.20;99.90
17687;DHT22;8962;52.538;13.266;2022-10-16T15:34:30;19.10;99.90
17687;DHT22;8962;52.538;13.266;2022-10-16T15:36:58;19.10;99.90
17687;DHT22;8962;52.538;13.266;2022-10-16T15:39:26;19.00;99.90
17687;DHT22;8962;52.538;13.266;2022-10-16T15:41:55;19.00;99.90
17687;DHT22;8962;52.538;13.266;2022-10-16T15:44:23;18.90;99.90
17687;DHT22;8962;52.538;13.266;2022-10-16T15:46:55;18.80;99.90
17687;DHT22;8962;52.538;13.266;2022-10-16T15:49:22;18.80;99.90
17687;DHT22;8962;52.538;13.266;2022-10-16T15:51:49;18.70;99.90
17687;DHT22;8962;52.538;13.266;2022-10-16T15:54:21;18.60;99.90
17687;DHT22;8962;52.538;13.266;2022-10-16T15:56:49;18.50;99.90
17687;DHT22;8962;52.538;13.266;2022-10-16T15:59:20;18.40;99.90
17687;DHT22;8962;52.538;13.266;2022-10-16T16:01:48;18.20;99.90
17687;DHT22;8962;52.538;13.266;2022-10-16T16:04:16;18.10;99.90
17687;DHT22;8962;52.538;13.266;2022-10-16T16:06:43;18.10;99.90